Time;durP1;ratioP1;P1;durP2;ratioP2;P2;SDS_P1;SDS_P2;PMS_P1;PMS_P2;Temp;Humidity;BMP_temperature;BMP_pressure;BME280_temperature;BME280_humidity;BME280_pressure;Samples;Min_cycle;Max_cycle;Signal;HPM_P1;HPM_P2
2022/05/17 00:00:36;;;;;;;11.00;4.10;;;16.90;86.30;;;;;;5055829;28;20418;-74
2022/05/17 00:03:03;;;;;;;7.00;4.03;;;16.80;86.50;;;;;;5050140;28;20208;-75
2022/05/17 00:05:29;;;;;;;10.10;3.90;;;16.90;86.20;;;;;;5056725;28;20210;-76
2022/05/17 00:07:55;;;;;;;9.80;4.10;;;17.00;85.70;;;;;;5049750;28;20833;-76
2022/05/17 00:10:21;;;;;;;7.43;3.80;;;16.90;85.90;;;;;;5047563;28;20419;-76
2022/05/17 00:12:49;;;;;;;6.80;4.50;;;16.90;86.00;;;;;;5047671;28;20838;-76
2022/05/17 00:15:15;;;;;;;6.33;3.80;;;16.80;86.30;;;;;;5047726;28;20427;-75
2022/05/17 00:17:41;;;;;;;9.90;4.63;;;16.70;86.80;;;;;;5050930;28;20801;-76
2022/05/17 00:20:08;;;;;;;6.80;4.23;;;16.60;87.00;;;;;;5056624;28;20430;-76
2022/05/17 00:22:34;;;;;;;8.13;4.27;;;16.50;87.10;;;;;;5051141;28;20809;-75
2022/05/17 00:25:01;;;;;;;7.80;4.07;;;16.50;87.10;;;;;;5057711;28;20918;-75
2022/05/17 00:27:27;;;;;;;8.67;4.17;;;16.50;87.40;;;;;;5050590;28;20487;-77
2022/05/17 00:29:52;;;;;;;8.17;4.13;;;16.40;87.70;;;;;;5050823;28;20443;-76
2022/05/17 00:32:18;;;;;;;8.23;4.63;;;16.30;88.00;;;;;;5045095;28;20214;-74
2022/05/17 00:34:46;;;;;;;6.67;4.80;;;16.30;88.10;;;;;;5053297;28;20262;-75
2022/05/17 00:37:13;;;;;;;11.90;4.93;;;16.30;88.00;;;;;;5049306;28;20434;-77
2022/05/17 00:39:39;;;;;;;8.57;4.87;;;16.20;87.80;;;;;;5057633;28;20423;-76
2022/05/17 00:42:05;;;;;;;8.90;4.07;;;16.20;88.00;;;;;;5050557;28;20456;-76
2022/05/17 00:44:43;;;;;;;9.43;4.97;;;16.30;88.00;;;;;;5059039;28;20421;-75
2022/05/17 00:47:44;;;;;;;8.23;4.60;;;16.30;87.80;;;;;;5054773;28;20523;-75
2022/05/17 00:50:31;;;;;;;8.27;4.03;;;16.20;87.80;;;;;;5056223;28;20416;-76
2022/05/17 00:53:04;;;;;;;11.27;4.70;;;16.20;88.00;;;;;;5052804;28;20472;-76
2022/05/17 00:55:51;;;;;;;6.90;4.40;;;16.10;88.00;;;;;;5062070;28;20415;-77
2022/05/17 00:58:22;;;;;;;6.40;4.50;;;16.10;88.30;;;;;;5056050;28;20417;-76
2022/05/17 01:01:02;;;;;;;8.30;4.60;;;16.10;88.30;;;;;;5050106;28;20978;-75
2022/05/17 01:03:34;;;;;;;9.60;5.40;;;16.10;88.30;;;;;;5058524;28;20456;-78
2022/05/17 01:06:01;;;;;;;6.83;4.03;;;16.00;88.30;;;;;;5054573;28;20440;-76
2022/05/17 01:08:28;;;;;;;8.00;4.97;;;16.10;88.30;;;;;;5055781;28;20474;-74
2022/05/17 01:10:54;;;;;;;5.93;4.30;;;16.10;88.10;;;;;;5050835;28;20419;-75
2022/05/17 01:16:06;;;;;;;9.03;5.17;;;16.10;88.10;;;;;;5045660;28;20209;-77
2022/05/17 01:18:34;;;;;;;11.63;5.20;;;16.10;88.30;;;;;;5053840;28;20411;-77
2022/05/17 01:21:02;;;;;;;7.07;4.33;;;16.10;88.30;;;;;;5055476;28;20186;-76
2022/05/17 01:23:28;;;;;;;5.77;4.30;;;16.10;88.30;;;;;;5051634;28;20546;-75
2022/05/17 01:25:54;;;;;;;7.43;5.20;;;16.10;88.40;;;;;;5051847;28;20448;-77
2022/05/17 01:28:23;;;;;;;10.40;4.10;;;16.10;88.00;;;;;;5053299;28;21094;-75
2022/05/17 01:30:49;;;;;;;6.07;3.80;;;16.10;88.00;;;;;;5053122;28;20200;-75
2022/05/17 01:33:20;;;;;;;9.20;5.43;;;16.10;87.70;;;;;;5052632;28;20823;-77
2022/05/17 01:35:47;;;;;;;10.87;4.87;;;16.10;87.60;;;;;;5048788;28;20457;-77
2022/05/17 01:38:13;;;;;;;6.67;4.53;;;16.00;87.80;;;;;;5054117;28;20419;-76
2022/05/17 01:40:39;;;;;;;9.27;5.20;;;16.10;87.70;;;;;;5054022;28;20459;-76
2022/05/17 01:43:06;;;;;;;8.40;4.27;;;16.10;87.70;;;;;;5047739;28;20459;-77
2022/05/17 01:45:32;;;;;;;9.43;4.20;;;16.10;87.70;;;;;;5041654;28;20441;-76
2022/05/17 01:47:58;;;;;;;6.97;4.67;;;16.10;87.40;;;;;;5040322;28;20974;-76
2022/05/17 01:50:24;;;;;;;11.90;4.70;;;16.00;87.70;;;;;;5049018;28;20188;-76
2022/05/17 01:52:50;;;;;;;7.87;5.07;;;16.00;88.10;;;;;;5040088;28;20992;-78
2022/05/17 01:55:15;;;;;;;8.30;4.83;;;15.90;88.60;;;;;;5046548;28;20954;-76
2022/05/17 01:57:41;;;;;;;8.37;5.40;;;15.90;88.60;;;;;;5041281;28;20172;-75
2022/05/17 02:00:12;;;;;;;9.93;4.80;;;15.90;88.70;;;;;;5047392;28;20218;-74
2022/05/17 02:02:38;;;;;;;7.23;4.60;;;15.90;88.60;;;;;;5048657;28;20465;-74
2022/05/17 02:05:05;;;;;;;8.40;5.00;;;15.90;88.30;;;;;;5046799;28;20510;-74
2022/05/17 02:07:31;;;;;;;11.13;4.67;;;15.80;88.40;;;;;;5056956;28;20560;-76
2022/05/17 02:09:57;;;;;;;8.73;4.50;;;15.80;88.60;;;;;;5055896;28;20425;-75
2022/05/17 02:12:23;;;;;;;10.70;4.80;;;15.80;88.90;;;;;;5059631;28;20451;-75
2022/05/17 02:14:49;;;;;;;7.63;4.50;;;15.70;89.00;;;;;;5059368;28;20416;-75
2022/05/17 02:17:15;;;;;;;9.50;4.27;;;15.70;89.20;;;;;;5058793;28;20193;-76
2022/05/17 02:19:40;;;;;;;7.83;4.30;;;15.70;89.50;;;;;;5058909;28;20193;-75
2022/05/17 02:22:06;;;;;;;10.30;5.27;;;15.70;89.70;;;;;;5054700;28;20208;-75
2022/05/17 02:24:33;;;;;;;8.53;5.20;;;15.70;89.90;;;;;;5047112;28;20192;-76
2022/05/17 02:26:59;;;;;;;10.57;5.30;;;15.70;89.50;;;;;;5050841;28;20475;-75
2022/05/17 02:29:25;;;;;;;9.43;5.20;;;15.70;89.60;;;;;;5048886;28;20435;-73
2022/05/17 02:31:51;;;;;;;6.50;4.57;;;15.70;89.60;;;;;;5045773;28;20220;-75
2022/05/17 02:34:19;;;;;;;9.60;4.80;;;15.70;89.50;;;;;;5041896;28;20478;-76
2022/05/17 02:36:44;;;;;;;7.13;5.10;;;15.70;89.20;;;;;;5050604;28;20503;-75
2022/05/17 02:39:12;;;;;;;9.60;5.10;;;15.60;89.30;;;;;;5044492;28;20863;-76
2022/05/17 02:41:37;;;;;;;7.90;5.03;;;15.50;89.70;;;;;;5053313;28;20503;-74
2022/05/17 02:44:03;;;;;;;9.83;5.67;;;15.50;90.10;;;;;;5049491;28;20416;-75
2022/05/17 02:46:31;;;;;;;10.17;4.90;;;15.50;90.40;;;;;;5061599;28;20240;-75
2022/05/17 02:48:58;;;;;;;7.50;4.20;;;15.50;90.20;;;;;;5051165;28;20502;-74
2022/05/17 02:51:24;;;;;;;6.30;4.80;;;15.50;89.90;;;;;;5059288;28;20428;-76
2022/05/17 02:53:50;;;;;;;8.30;4.43;;;15.50;89.90;;;;;;5045528;28;20491;-75
2022/05/17 02:56:16;;;;;;;11.00;5.30;;;15.50;89.70;;;;;;5048730;28;20418;-75
2022/05/17 02:58:42;;;;;;;9.30;5.90;;;15.50;89.60;;;;;;5064485;28;20198;-75
2022/05/17 03:01:08;;;;;;;10.57;5.40;;;15.40;89.70;;;;;;5059689;28;20498;-76
2022/05/17 03:03:41;;;;;;;9.00;5.10;;;15.40;89.50;;;;;;5062225;28;20229;-76
2022/05/17 03:06:09;;;;;;;11.30;5.27;;;15.30;89.70;;;;;;5057004;28;20477;-76
2022/05/17 03:08:35;;;;;;;11.47;5.03;;;15.30;90.10;;;;;;5051368;28;20834;-75
2022/05/17 03:11:02;;;;;;;9.27;4.80;;;15.20;90.30;;;;;;5051728;28;20515;-74
2022/05/17 03:13:27;;;;;;;7.13;5.30;;;15.20;90.40;;;;;;5055737;28;20482;-77
2022/05/17 03:15:53;;;;;;;12.10;5.00;;;15.10;90.50;;;;;;5054674;28;20855;-76
2022/05/17 03:18:19;;;;;;;9.00;5.57;;;15.10;90.70;;;;;;5051771;28;20196;-76
2022/05/17 03:20:47;;;;;;;9.40;5.23;;;15.10;90.70;;;;;;5060504;28;20235;-77
2022/05/17 03:23:12;;;;;;;9.83;4.90;;;15.00;90.70;;;;;;5053568;28;20212;-74
2022/05/17 03:25:38;;;;;;;7.60;5.37;;;14.90;90.90;;;;;;5052410;28;20905;-77
2022/05/17 03:28:04;;;;;;;6.73;5.30;;;14.90;91.30;;;;;;5049328;28;20216;-76
2022/05/17 03:30:30;;;;;;;8.53;5.33;;;14.90;91.30;;;;;;5051531;28;20184;-75
2022/05/17 03:32:56;;;;;;;8.03;5.30;;;15.00;91.30;;;;;;5052996;28;20458;-74
2022/05/17 03:35:22;;;;;;;7.93;5.00;;;14.90;91.40;;;;;;5057962;28;20452;-74
2022/05/17 03:37:48;;;;;;;8.00;5.33;;;15.00;91.50;;;;;;5063298;28;20500;-74
2022/05/17 03:40:14;;;;;;;11.73;5.10;;;15.00;91.30;;;;;;5061442;28;20434;-77
2022/05/17 03:42:41;;;;;;;8.23;4.83;;;15.00;91.00;;;;;;5048021;28;20693;-75
2022/05/17 03:45:11;;;;;;;7.20;5.00;;;15.10;90.90;;;;;;5055606;28;20416;-76
2022/05/17 03:47:36;;;;;;;8.60;6.00;;;15.00;90.70;;;;;;5045049;28;20474;-75
2022/05/17 03:50:04;;;;;;;8.80;5.07;;;15.00;91.10;;;;;;5051774;28;20435;-75
2022/05/17 03:52:31;;;;;;;10.13;5.30;;;14.90;91.40;;;;;;5048802;28;20204;-75
2022/05/17 03:54:58;;;;;;;8.10;5.47;;;14.90;91.50;;;;;;5054132;28;20458;-74
2022/05/17 03:57:25;;;;;;;10.90;5.80;;;15.00;91.40;;;;;;5053003;28;20474;-74
2022/05/17 03:59:51;;;;;;;9.13;5.10;;;15.00;91.10;;;;;;5053506;28;20921;-74
2022/05/17 04:02:17;;;;;;;8.10;5.30;;;15.00;91.00;;;;;;5045447;28;21020;-75
2022/05/17 04:04:43;;;;;;;10.00;5.10;;;15.10;90.70;;;;;;5046375;28;20423;-76
2022/05/17 04:07:09;;;;;;;8.90;5.40;;;15.10;90.70;;;;;;5050397;28;20495;-77
2022/05/17 04:09:35;;;;;;;13.10;5.43;;;15.10;90.40;;;;;;5044870;28;20460;-76
2022/05/17 04:12:03;;;;;;;13.73;6.70;;;15.00;90.30;;;;;;5041136;28;20206;-76
2022/05/17 04:14:28;;;;;;;10.07;6.20;;;14.90;90.70;;;;;;5049847;28;20214;-75
2022/05/17 04:16:54;;;;;;;9.73;5.03;;;14.90;90.90;;;;;;5050460;28;20443;-77
2022/05/17 04:19:20;;;;;;;9.10;6.00;;;14.80;91.00;;;;;;5053732;28;20189;-76
2022/05/17 04:21:47;;;;;;;9.90;6.10;;;14.80;91.20;;;;;;5044081;28;20459;-77
2022/05/17 04:24:14;;;;;;;11.03;6.17;;;14.80;91.20;;;;;;5041192;28;20241;-76
2022/05/17 04:26:40;;;;;;;10.80;5.70;;;14.80;91.30;;;;;;5041411;28;20551;-75
2022/05/17 04:29:07;;;;;;;10.33;5.97;;;14.80;91.40;;;;;;5048969;28;20495;-77
2022/05/17 04:31:33;;;;;;;9.77;5.60;;;14.80;91.20;;;;;;5043043;28;20528;-76
2022/05/17 04:33:59;;;;;;;12.60;6.17;;;14.80;91.30;;;;;;5047638;28;20438;-76
2022/05/17 04:36:25;;;;;;;7.80;5.33;;;14.90;91.30;;;;;;5044469;28;20418;-74
2022/05/17 04:38:52;;;;;;;9.20;5.70;;;14.90;91.30;;;;;;5050650;28;20419;-76
2022/05/17 04:41:18;;;;;;;9.00;5.97;;;14.90;91.30;;;;;;5053176;28;20267;-76
2022/05/17 04:43:44;;;;;;;9.03;5.20;;;15.00;91.20;;;;;;5047689;28;20546;-76
2022/05/17 04:46:10;;;;;;;8.30;6.10;;;15.00;91.10;;;;;;5053066;28;20515;-76
2022/05/17 04:48:36;;;;;;;13.03;5.27;;;15.00;90.70;;;;;;5053198;28;20212;-76
2022/05/17 04:51:12;;;;;;;9.50;5.30;;;15.00;90.90;;;;;;5055039;28;20946;-77
2022/05/17 04:53:40;;;;;;;9.33;6.30;;;15.10;90.90;;;;;;5046013;28;20473;-76
2022/05/17 04:56:07;;;;;;;10.37;5.90;;;15.10;90.70;;;;;;5045592;28;20911;-77
2022/05/17 04:58:34;;;;;;;10.90;6.27;;;15.10;90.90;;;;;;5049988;28;20431;-76
2022/05/17 05:01:00;;;;;;;15.70;6.67;;;15.10;91.20;;;;;;5047943;28;20918;-77
2022/05/17 05:03:27;;;;;;;8.40;5.93;;;15.20;91.20;;;;;;5050497;28;20885;-76
2022/05/17 05:05:52;;;;;;;13.97;6.40;;;15.30;91.50;;;;;;5038700;28;20436;-77
2022/05/17 05:08:18;;;;;;;15.13;7.20;;;15.40;91.60;;;;;;5046335;28;20595;-76
2022/05/17 05:10:45;;;;;;;10.83;6.97;;;15.50;91.20;;;;;;5039405;28;20188;-77
2022/05/17 05:13:22;;;;;;;14.50;7.23;;;15.60;91.10;;;;;;5038636;28;20477;-77
2022/05/17 05:15:48;;;;;;;11.87;5.60;;;15.60;90.10;;;;;;5054032;28;20420;-75
2022/05/17 05:18:15;;;;;;;12.63;6.90;;;15.70;89.70;;;;;;5052094;28;20442;-74
2022/05/17 05:20:41;;;;;;;11.67;6.50;;;15.70;89.30;;;;;;5057069;28;20427;-76
2022/05/17 05:23:08;;;;;;;13.47;5.90;;;15.80;89.00;;;;;;5045799;28;20444;-74
2022/05/17 05:25:35;;;;;;;12.17;6.43;;;15.90;88.90;;;;;;5047878;28;21020;-76
2022/05/17 05:28:01;;;;;;;10.40;5.90;;;15.90;88.60;;;;;;5050530;28;20476;-75
2022/05/17 05:30:29;;;;;;;11.17;5.83;;;16.00;88.60;;;;;;5053384;28;20439;-75
2022/05/17 05:32:55;;;;;;;10.77;6.60;;;16.00;88.60;;;;;;5049004;28;20459;-73
2022/05/17 05:35:21;;;;;;;11.60;7.13;;;16.00;88.40;;;;;;5056109;28;20427;-75
2022/05/17 05:37:48;;;;;;;15.60;6.70;;;16.10;88.60;;;;;;5055522;28;20967;-75
2022/05/17 05:40:14;;;;;;;11.93;7.43;;;16.10;88.30;;;;;;5052837;28;20960;-76
2022/05/17 05:42:41;;;;;;;9.80;7.30;;;16.20;88.00;;;;;;5045633;28;20509;-75
2022/05/17 05:45:08;;;;;;;11.47;6.87;;;16.40;87.60;;;;;;5051350;28;20419;-74
2022/05/17 05:47:34;;;;;;;12.93;8.03;;;16.50;87.00;;;;;;5050954;28;20513;-74
2022/05/17 05:50:00;;;;;;;11.97;7.67;;;16.50;86.80;;;;;;5048629;28;20443;-75
2022/05/17 05:52:26;;;;;;;18.53;6.67;;;16.60;86.60;;;;;;5041037;28;20208;-75
2022/05/17 05:54:52;;;;;;;10.77;7.60;;;16.70;86.30;;;;;;5042885;28;20199;-75
2022/05/17 05:57:18;;;;;;;10.73;6.73;;;16.70;86.20;;;;;;5049384;28;20188;-76
2022/05/17 05:59:44;;;;;;;12.77;7.30;;;16.80;85.70;;;;;;5051717;28;20898;-76
2022/05/17 06:02:11;;;;;;;10.20;7.20;;;16.90;85.50;;;;;;5045584;28;20464;-75
2022/05/17 06:04:37;;;;;;;11.10;6.67;;;17.00;85.30;;;;;;5052010;28;20461;-76
2022/05/17 06:07:04;;;;;;;14.30;6.70;;;17.00;85.50;;;;;;5050559;28;20500;-77
2022/05/17 06:09:30;;;;;;;9.77;6.60;;;17.10;85.60;;;;;;5051781;28;20419;-75
2022/05/17 06:11:56;;;;;;;13.67;7.20;;;17.20;85.30;;;;;;5047462;28;20832;-74
2022/05/17 06:14:22;;;;;;;8.10;6.20;;;17.40;84.90;;;;;;5044683;28;20411;-77
2022/05/17 06:16:52;;;;;;;11.67;7.00;;;17.50;84.10;;;;;;5045463;28;20572;-75
2022/05/17 06:19:19;;;;;;;9.97;6.83;;;17.60;83.80;;;;;;5049878;28;20426;-76
2022/05/17 06:21:44;;;;;;;12.33;7.67;;;17.70;83.80;;;;;;5041766;28;20454;-77
2022/05/17 06:24:10;;;;;;;10.10;7.67;;;17.70;83.70;;;;;;5049029;28;20443;-75
2022/05/17 06:26:39;;;;;;;12.17;7.00;;;17.80;83.30;;;;;;5041149;28;20620;-75
2022/05/17 06:29:06;;;;;;;10.70;7.27;;;17.80;83.10;;;;;;5050316;28;20474;-76
2022/05/17 06:31:31;;;;;;;15.80;6.70;;;18.00;83.00;;;;;;5050746;28;20937;-76
2022/05/17 06:33:57;;;;;;;13.70;7.40;;;18.10;82.20;;;;;;5051997;28;20451;-76
2022/05/17 06:36:23;;;;;;;12.40;7.60;;;18.30;81.70;;;;;;5051521;28;20180;-77
2022/05/17 06:38:48;;;;;;;12.20;7.20;;;18.30;81.80;;;;;;5050492;28;20186;-77
2022/05/17 06:41:14;;;;;;;14.83;7.90;;;18.40;81.90;;;;;;5047781;28;20204;-76
2022/05/17 06:43:40;;;;;;;10.60;6.83;;;18.50;81.50;;;;;;5041933;28;20214;-75
2022/05/17 06:46:06;;;;;;;12.53;6.87;;;18.70;80.60;;;;;;5045324;28;20251;-76
2022/05/17 06:48:31;;;;;;;13.67;6.93;;;18.80;80.00;;;;;;5052054;28;20294;-76
2022/05/17 06:51:05;;;;;;;13.27;7.47;;;18.80;79.70;;;;;;5055040;28;20960;-77
2022/05/17 06:53:31;;;;;;;15.23;6.97;;;18.90;80.00;;;;;;5052918;28;20506;-76
2022/05/17 06:55:58;;;;;;;15.73;8.23;;;19.00;79.90;;;;;;5057448;28;20436;-75
2022/05/17 06:58:24;;;;;;;13.70;8.13;;;19.00;79.90;;;;;;5054956;28;20439;-76
2022/05/17 07:00:50;;;;;;;15.23;7.70;;;19.10;79.60;;;;;;5050985;28;20850;-74
2022/05/17 07:03:16;;;;;;;12.20;7.33;;;19.20;79.50;;;;;;5048488;28;20487;-75
2022/05/17 07:05:42;;;;;;;13.90;7.50;;;19.20;79.30;;;;;;5059432;28;21094;-77
2022/05/17 07:08:08;;;;;;;14.83;8.00;;;19.20;79.50;;;;;;5054497;28;20211;-75
2022/05/17 07:13:18;;;;;;;13.60;7.57;;;19.30;79.30;;;;;;5044542;28;20246;-76
2022/05/17 07:15:48;;;;;;;12.00;7.50;;;19.40;79.20;;;;;;5052173;28;20421;-75
2022/05/17 07:18:17;;;;;;;16.70;8.13;;;19.40;79.20;;;;;;5054506;28;20700;-77
2022/05/17 07:20:44;;;;;;;13.30;7.30;;;19.40;79.30;;;;;;5051273;28;20431;-77
2022/05/17 07:23:11;;;;;;;16.60;7.87;;;19.30;79.50;;;;;;5046182;28;20457;-77
2022/05/17 07:25:41;;;;;;;15.57;8.27;;;19.30;79.90;;;;;;5048547;28;20420;-74
2022/05/17 07:28:08;;;;;;;14.90;7.53;;;19.40;79.70;;;;;;5048319;28;20492;-75
2022/05/17 07:30:33;;;;;;;10.20;7.10;;;19.50;79.70;;;;;;5041837;28;20423;-76
2022/05/17 07:32:59;;;;;;;16.07;6.97;;;19.60;79.90;;;;;;5049084;28;20465;-74
2022/05/17 07:35:25;;;;;;;14.90;7.80;;;19.80;79.50;;;;;;5040299;28;20198;-75
2022/05/17 07:37:51;;;;;;;10.10;6.33;;;19.90;78.90;;;;;;5048654;28;20263;-75
2022/05/17 07:40:18;;;;;;;10.33;6.40;;;19.90;77.40;;;;;;5037663;28;20258;-76
2022/05/17 07:42:44;;;;;;;16.17;8.07;;;20.00;75.90;;;;;;5051556;28;20212;-74
2022/05/17 07:45:12;;;;;;;9.53;5.87;;;20.10;75.50;;;;;;5045428;28;20427;-74
2022/05/17 07:47:38;;;;;;;11.73;7.67;;;20.10;75.50;;;;;;5054812;28;20555;-74
2022/05/17 07:50:04;;;;;;;11.20;5.83;;;20.30;74.60;;;;;;5054600;28;20423;-76
2022/05/17 07:52:31;;;;;;;11.03;6.23;;;20.40;73.70;;;;;;5051295;28;20592;-76
2022/05/17 07:54:57;;;;;;;10.03;6.10;;;20.50;73.20;;;;;;5051855;28;20448;-76
2022/05/17 07:57:23;;;;;;;8.10;5.53;;;20.50;72.70;;;;;;5053124;28;20447;-76
2022/05/17 07:59:50;;;;;;;11.40;6.07;;;20.50;73.30;;;;;;5053041;28;20448;-76
2022/05/17 08:02:16;;;;;;;9.00;6.13;;;20.70;70.70;;;;;;5048387;28;20465;-74
2022/05/17 08:04:41;;;;;;;9.93;6.40;;;20.70;71.40;;;;;;5052138;28;20193;-74
2022/05/17 08:07:08;;;;;;;7.67;5.47;;;20.80;71.80;;;;;;5048016;28;20675;-76
2022/05/17 08:09:35;;;;;;;14.53;6.00;;;20.90;70.80;;;;;;5053853;28;20480;-76
2022/05/17 08:12:02;;;;;;;10.33;5.20;;;21.00;70.10;;;;;;5049993;28;20472;-75
2022/05/17 08:14:28;;;;;;;9.07;5.10;;;21.10;69.20;;;;;;5053503;28;20437;-75
2022/05/17 08:16:54;;;;;;;8.93;5.10;;;21.10;68.90;;;;;;5054536;28;20425;-75
2022/05/17 08:19:19;;;;;;;9.47;6.07;;;21.10;68.50;;;;;;5059890;28;20619;-75
2022/05/17 08:21:45;;;;;;;6.87;4.77;;;21.20;67.70;;;;;;5057022;28;20202;-76
2022/05/17 08:24:11;;;;;;;8.80;5.70;;;21.20;67.70;;;;;;5058980;28;20564;-76
2022/05/17 08:29:22;;;;;;;9.23;5.10;;;21.20;67.00;;;;;;5058778;28;20214;-76
2022/05/17 08:34:32;;;;;;;8.93;4.97;;;21.20;67.50;;;;;;5056748;28;20189;-77
2022/05/17 08:36:58;;;;;;;6.47;5.17;;;21.30;67.90;;;;;;5060043;28;20501;-76
2022/05/17 08:39:26;;;;;;;8.97;5.33;;;21.40;67.00;;;;;;5056805;28;20516;-76
2022/05/17 08:42:19;;;;;;;8.47;5.07;;;21.50;67.30;;;;;;5052434;28;20228;-77
2022/05/17 08:44:51;;;;;;;8.03;5.60;;;21.80;67.00;;;;;;5043397;28;20430;-75
2022/05/17 08:47:25;;;;;;;8.30;4.50;;;22.10;66.60;;;;;;5054676;28;20989;-76
2022/05/17 08:49:56;;;;;;;8.23;5.13;;;22.30;65.40;;;;;;5050908;28;20418;-76
2022/05/17 08:52:24;;;;;;;7.63;4.90;;;22.30;63.50;;;;;;5056304;28;20477;-76
2022/05/17 08:55:01;;;;;;;9.63;5.30;;;22.30;62.60;;;;;;5058184;28;20530;-76
2022/05/17 08:57:47;;;;;;;9.33;5.00;;;22.30;63.90;;;;;;5061550;28;20426;-75
2022/05/17 09:00:18;;;;;;;7.70;4.10;;;22.40;62.20;;;;;;5056556;28;20444;-76
2022/05/17 09:03:05;;;;;;;11.83;4.50;;;22.40;61.60;;;;;;5054772;28;20812;-75
2022/05/17 09:05:36;;;;;;;7.17;4.20;;;22.40;60.60;;;;;;5047498;28;20505;-76
2022/05/17 09:08:39;;;;;;;10.33;5.17;;;22.40;61.70;;;;;;5046933;28;20906;-77
2022/05/17 09:11:22;;;;;;;7.73;4.40;;;22.40;61.50;;;;;;5049887;28;20443;-76
2022/05/17 09:13:57;;;;;;;12.90;4.87;;;22.60;60.30;;;;;;5045793;28;20991;-77
2022/05/17 09:16:25;;;;;;;10.80;5.03;;;22.70;60.10;;;;;;5059496;28;20426;-76
2022/05/17 09:18:51;;;;;;;10.10;4.97;;;22.80;61.50;;;;;;5052440;28;21085;-76
2022/05/17 09:21:23;;;;;;;8.23;5.30;;;22.90;61.00;;;;;;5047436;28;20438;-77
2022/05/17 09:23:49;;;;;;;11.40;5.50;;;23.10;60.10;;;;;;5051208;28;20578;-78
2022/05/17 09:26:18;;;;;;;11.97;5.30;;;23.20;60.30;;;;;;5046326;28;20440;-77
2022/05/17 09:28:44;;;;;;;6.47;5.23;;;23.30;60.00;;;;;;5053731;28;20215;-78
2022/05/17 09:31:16;;;;;;;7.57;5.43;;;23.20;60.40;;;;;;5051595;28;20427;-78
2022/05/17 09:33:42;;;;;;;7.73;4.87;;;23.20;59.20;;;;;;5049587;28;20649;-74
2022/05/17 09:36:15;;;;;;;8.63;5.97;;;23.00;59.20;;;;;;5045540;28;20431;-76
2022/05/17 09:38:41;;;;;;;9.40;5.77;;;22.90;60.30;;;;;;5053367;28;20450;-76
2022/05/17 09:41:12;;;;;;;8.77;5.63;;;23.00;60.00;;;;;;5042756;28;20462;-76
2022/05/17 09:43:50;;;;;;;16.83;7.17;;;22.80;60.10;;;;;;5047581;28;20206;-77
2022/05/17 09:46:47;;;;;;;17.67;6.67;;;22.90;60.30;;;;;;5052739;28;20500;-75
2022/05/17 09:52:34;;;;;;;9.13;5.47;;;23.10;59.70;;;;;;5046765;28;21046;-75
2022/05/17 09:55:21;;;;;;;8.10;5.80;;;23.10;59.30;;;;;;5053131;28;20480;-77
2022/05/17 09:57:59;;;;;;;13.03;6.63;;;23.20;61.20;;;;;;5047605;28;20478;-76
2022/05/17 10:00:39;;;;;;;7.70;4.90;;;23.20;60.60;;;;;;5047309;28;20432;-76
2022/05/17 10:03:12;;;;;;;10.47;5.57;;;23.20;60.60;;;;;;5045077;28;20457;-75
2022/05/17 10:05:40;;;;;;;6.87;5.17;;;23.20;60.40;;;;;;5040916;28;20418;-76
2022/05/17 10:08:28;;;;;;;10.50;5.07;;;23.20;59.30;;;;;;5051077;28;20465;-76
2022/05/17 10:11:06;;;;;;;6.63;5.47;;;23.50;58.90;;;;;;5050551;28;20726;-75
2022/05/17 10:13:59;;;;;;;8.07;5.37;;;24.00;58.90;;;;;;5050937;28;20454;-76
2022/05/17 10:16:29;;;;;;;11.07;5.80;;;24.50;56.40;;;;;;5055398;28;20443;-78
2022/05/17 10:19:03;;;;;;;6.77;4.30;;;24.30;56.10;;;;;;5059851;28;20431;-74
2022/05/17 10:21:47;;;;;;;9.60;5.43;;;24.70;56.60;;;;;;5059729;28;20442;-74
2022/05/17 10:24:37;;;;;;;9.53;5.70;;;25.00;54.90;;;;;;5055336;28;20446;-76
2022/05/17 10:27:18;;;;;;;8.80;5.07;;;25.10;53.40;;;;;;5045148;28;20464;-76
2022/05/17 10:29:54;;;;;;;9.03;5.70;;;24.60;54.40;;;;;;5046129;28;20985;-75
2022/05/17 10:32:35;;;;;;;9.17;5.10;;;24.40;55.30;;;;;;5048149;28;21014;-78
2022/05/17 10:35:04;;;;;;;9.73;4.73;;;24.40;55.60;;;;;;5050354;28;20798;-77
2022/05/17 10:37:40;;;;;;;8.37;5.03;;;24.70;55.20;;;;;;5048283;28;20438;-76
2022/05/17 10:40:12;;;;;;;6.77;4.47;;;24.80;53.40;;;;;;5048335;28;20775;-78
2022/05/17 10:42:39;;;;;;;9.27;5.00;;;25.40;52.80;;;;;;5039526;28;20503;-76
2022/05/17 10:45:06;;;;;;;9.70;5.30;;;25.70;51.40;;;;;;5050236;28;20414;-77
2022/05/17 10:47:52;;;;;;;8.07;4.70;;;25.90;51.00;;;;;;5044351;28;20474;-77
2022/05/17 10:50:30;;;;;;;7.87;4.67;;;25.50;51.00;;;;;;5038936;28;21002;-76
2022/05/17 10:53:19;;;;;;;7.90;4.57;;;25.40;51.00;;;;;;5039056;28;20465;-76
2022/05/17 10:56:01;;;;;;;7.03;4.47;;;25.50;51.70;;;;;;5040023;28;20414;-77
2022/05/17 10:58:44;;;;;;;10.43;4.90;;;25.90;50.30;;;;;;5042928;28;20524;-75
2022/05/17 11:01:49;;;;;;;8.43;4.67;;;26.10;50.20;;;;;;5042462;28;20433;-75
2022/05/17 11:04:57;;;;;;;8.10;4.60;;;26.10;49.10;;;;;;5029787;28;20520;-75
2022/05/17 11:07:44;;;;;;;8.47;5.17;;;26.10;49.50;;;;;;5037412;28;20576;-75
2022/05/17 11:10:30;;;;;;;8.77;5.37;;;26.60;48.20;;;;;;5041234;28;20949;-75
2022/05/17 11:13:16;;;;;;;8.00;5.70;;;26.70;47.80;;;;;;5047957;28;20800;-75
2022/05/17 11:15:53;;;;;;;10.83;4.77;;;26.50;47.70;;;;;;5053264;28;20470;-76
2022/05/17 11:18:51;;;;;;;8.00;4.90;;;26.10;49.90;;;;;;5054435;28;20418;-76
2022/05/17 11:21:30;;;;;;;6.27;5.10;;;26.00;48.50;;;;;;5051584;28;20429;-76
2022/05/17 11:24:35;;;;;;;6.87;3.87;;;25.80;49.70;;;;;;5062608;28;20425;-75
2022/05/17 11:27:08;;;;;;;7.43;5.20;;;26.30;49.10;;;;;;5041286;28;20439;-77
2022/05/17 11:29:52;;;;;;;6.53;4.03;;;26.70;47.90;;;;;;5046571;28;20683;-75
2022/05/17 11:32:26;;;;;;;7.27;4.17;;;27.20;46.70;;;;;;5053979;28;20976;-76
2022/05/17 11:34:53;;;;;;;6.30;4.30;;;27.60;44.30;;;;;;5049926;28;20422;-75
2022/05/17 11:37:36;;;;;;;7.93;4.73;;;27.40;44.90;;;;;;5055028;28;20426;-76
2022/05/17 11:40:13;;;;;;;6.30;4.03;;;26.80;45.70;;;;;;5049562;28;20760;-75
2022/05/17 11:45:50;;;;;;;4.47;3.63;;;26.60;44.60;;;;;;5046373;28;20438;-75
2022/05/17 11:48:19;;;;;;;8.83;4.23;;;26.50;44.70;;;;;;5046502;28;20586;-75
2022/05/17 11:51:01;;;;;;;7.93;4.00;;;26.20;46.20;;;;;;5044015;28;20461;-75
2022/05/17 11:53:27;;;;;;;6.47;4.00;;;26.50;45.70;;;;;;5041144;28;20465;-76
2022/05/17 11:56:12;;;;;;;8.00;3.93;;;26.70;45.30;;;;;;5043896;28;20494;-74
2022/05/17 11:58:38;;;;;;;8.00;3.70;;;26.90;44.30;;;;;;5042531;28;20552;-74
2022/05/17 12:01:30;;;;;;;6.33;3.43;;;26.40;44.70;;;;;;5049396;28;20431;-74
2022/05/17 12:04:09;;;;;;;6.00;3.10;;;26.30;43.90;;;;;;5050295;28;20433;-74
2022/05/17 12:07:04;;;;;;;5.10;2.67;;;26.30;44.10;;;;;;5054098;28;20425;-77
2022/05/17 12:09:34;;;;;;;3.87;3.20;;;26.80;42.40;;;;;;5050956;28;20438;-75
2022/05/17 12:12:13;;;;;;;5.60;3.30;;;27.30;42.40;;;;;;5048758;28;20465;-74
2022/05/17 12:15:06;;;;;;;5.30;3.00;;;27.60;41.10;;;;;;5051736;28;20502;-75
2022/05/17 12:17:58;;;;;;;6.63;3.37;;;27.80;39.60;;;;;;5052487;28;20423;-77
2022/05/17 12:20:50;;;;;;;5.73;2.23;;;27.40;39.50;;;;;;5045518;28;21131;-76
2022/05/17 12:23:35;;;;;;;4.73;2.90;;;26.50;41.10;;;;;;5036021;28;20459;-77
2022/05/17 12:26:20;;;;;;;4.67;2.53;;;26.90;41.00;;;;;;5044203;28;20994;-77
2022/05/17 12:28:51;;;;;;;4.00;2.47;;;27.20;39.40;;;;;;5047165;28;20470;-76
2022/05/17 12:31:27;;;;;;;6.00;3.13;;;27.60;39.50;;;;;;5036778;28;20940;-77
2022/05/17 12:33:55;;;;;;;5.83;3.03;;;27.90;39.20;;;;;;5048600;28;20498;-75
2022/05/17 12:36:27;;;;;;;5.87;3.17;;;28.10;40.20;;;;;;5044133;28;20423;-78
2022/05/17 12:44:48;;;;;;;5.10;3.00;;;28.90;39.60;;;;;;5050781;28;20464;-75
2022/05/17 12:47:22;;;;;;;8.13;3.10;;;29.30;37.90;;;;;;5051964;28;20519;-76
2022/05/17 12:49:53;;;;;;;4.27;3.33;;;29.50;37.90;;;;;;5055038;28;20419;-77
2022/05/17 12:52:28;;;;;;;3.80;2.50;;;29.10;38.20;;;;;;5049894;28;20452;-77
2022/05/17 12:54:58;;;;;;;4.20;2.30;;;28.60;37.90;;;;;;5048903;28;20446;-76
2022/05/17 12:57:30;;;;;;;4.77;2.90;;;27.80;38.70;;;;;;5055055;28;20426;-75
2022/05/17 13:00:23;;;;;;;2.73;2.40;;;27.40;39.60;;;;;;5046331;28;20423;-75
2022/05/17 13:02:58;;;;;;;4.80;2.73;;;27.30;39.40;;;;;;5044802;28;20461;-75
2022/05/17 13:05:49;;;;;;;5.20;2.27;;;27.40;39.60;;;;;;5042323;28;20432;-76
2022/05/17 13:08:18;;;;;;;2.73;1.90;;;28.20;38.40;;;;;;5045898;28;20493;-76
2022/05/17 13:10:56;;;;;;;3.27;2.37;;;28.60;36.30;;;;;;5050604;28;20431;-77
2022/05/17 13:13:22;;;;;;;5.07;2.10;;;28.90;35.70;;;;;;5047057;28;20455;-76
2022/05/17 13:16:03;;;;;;;2.23;1.70;;;28.10;36.20;;;;;;5049647;28;20415;-74
2022/05/17 13:18:47;;;;;;;6.50;2.10;;;27.90;36.60;;;;;;5039287;28;20419;-76
2022/05/17 13:21:33;;;;;;;2.83;1.80;;;27.80;37.10;;;;;;5041513;28;20427;-76
2022/05/17 13:24:03;;;;;;;5.20;2.30;;;28.40;36.20;;;;;;5040842;28;20514;-75